createdAt,value
2022-08-05T00:04:15.411Z,55
2022-08-05T00:09:19.617Z,55
2022-08-05T00:14:17.517Z,55
2022-08-05T00:19:11.749Z,56
2022-08-05T00:24:24.448Z,56
2022-08-05T00:29:10.750Z,57
2022-08-05T00:35:07.492Z,55
2022-08-05T00:39:14.820Z,55
2022-08-05T00:44:16.320Z,55
2022-08-05T00:49:17.788Z,54
2022-08-05T00:54:14.117Z,55
2022-08-05T00:59:00.273Z,55
2022-08-05T01:03:57.693Z,55
2022-08-05T01:08:57.913Z,55
2022-08-05T01:13:59.814Z,56
2022-08-05T01:18:57.341Z,56
2022-08-05T01:23:57.330Z,57
2022-08-05T01:28:53.954Z,57
2022-08-05T01:33:54.414Z,57
2022-08-05T01:38:51.978Z,57
2022-08-05T01:43:50.402Z,57
2022-08-05T01:48:50.840Z,58
2022-08-05T01:53:59.554Z,58
2022-08-05T01:58:50.499Z,59
2022-08-05T02:03:50.702Z,59
2022-08-05T02:08:59.224Z,60
2022-08-05T02:13:54.704Z,61
2022-08-05T02:18:46.814Z,61
2022-08-05T02:23:46.515Z,61
2022-08-05T02:28:46.846Z,61
2022-08-05T02:33:43.818Z,61
2022-08-05T02:38:43.881Z,62
2022-08-05T02:44:11.214Z,62
2022-08-05T02:48:43.984Z,62
2022-08-05T02:53:41.836Z,62
2022-08-05T02:58:44.412Z,62
2022-08-05T03:04:12.077Z,63
2022-08-05T03:08:37.037Z,63
2022-08-05T03:14:04.212Z,62
2022-08-05T03:18:42.728Z,61
2022-08-05T03:23:35.241Z,61
2022-08-05T03:28:33.649Z,61
2022-08-05T03:33:53.374Z,61
2022-08-05T03:38:37.921Z,61
2022-08-05T03:44:12.058Z,62
2022-08-05T03:48:29.829Z,62
2022-08-05T03:56:10.253Z,63
2022-08-05T03:58:29.682Z,64
2022-08-05T03:59:55.925Z,64
2022-08-05T04:04:49.395Z,66
2022-08-05T04:09:54.762Z,67
2022-08-05T04:14:47.459Z,67
2022-08-05T04:19:45.622Z,68
2022-08-05T04:24:52.369Z,69
2022-08-05T04:29:43.191Z,69
2022-08-05T04:34:44.387Z,70
2022-08-05T04:39:42.349Z,70
2022-08-05T04:44:41.968Z,70
2022-08-05T04:50:11.044Z,70
2022-08-05T04:54:40.728Z,69
2022-08-05T04:59:36.866Z,67
2022-08-05T05:04:14.584Z,66
2022-08-05T05:09:18.428Z,65
2022-08-05T05:14:16.864Z,65
2022-08-05T05:19:23.372Z,63
2022-08-05T05:24:12.750Z,62
2022-08-05T05:29:15.366Z,60
2022-08-05T05:34:12.476Z,59
2022-08-05T05:39:12.183Z,57
2022-08-05T05:44:37.649Z,57
2022-08-05T05:49:23.531Z,57
2022-08-05T05:54:17.575Z,57
2022-08-05T05:58:56.291Z,57
2022-08-05T06:04:03.763Z,57
2022-08-05T06:08:54.166Z,58
2022-08-05T06:13:56.050Z,58
2022-08-05T06:18:54.184Z,59
2022-08-05T06:23:52.353Z,58
2022-08-05T06:28:49.191Z,58
2022-08-05T06:34:09.515Z,57
2022-08-05T06:38:48.581Z,57
2022-08-05T06:44:00.553Z,57
2022-08-05T06:48:59.978Z,55
2022-08-05T06:53:54.154Z,54
2022-08-05T06:58:47.411Z,53
2022-08-05T07:03:45.953Z,52
2022-08-05T07:08:53.202Z,51
2022-08-05T07:14:00.249Z,51
2022-08-05T07:18:48.444Z,51
2022-08-05T07:23:52.171Z,50
2022-08-05T07:28:43.558Z,50
2022-08-05T07:33:43.597Z,50
2022-08-05T07:38:44.877Z,50
2022-08-05T07:43:43.521Z,50
2022-08-05T07:49:07.904Z,49
2022-08-05T07:53:51.756Z,48
2022-08-05T07:58:59.411Z,47
2022-08-05T08:03:45.060Z,48
2022-08-05T08:08:38.906Z,49
2022-08-05T08:14:00.545Z,50
2022-08-05T08:18:38.894Z,47
2022-08-05T08:24:05.199Z,45
2022-08-05T08:28:42.461Z,47
2022-08-05T08:33:38.929Z,43
2022-08-05T08:38:37.655Z,43
2022-08-05T08:45:25.901Z,42
2022-08-05T08:50:08.120Z,40
2022-08-05T08:53:35.244Z,41
2022-08-05T08:58:47.766Z,41
2022-08-05T08:59:56.723Z,41
2022-08-05T09:05:18.389Z,41
2022-08-05T09:09:52.654Z,39
2022-08-05T09:15:04.816Z,40
2022-08-05T09:20:04.605Z,39
2022-08-05T09:24:51.678Z,39
2022-08-05T09:29:51.429Z,38
2022-08-05T09:34:50.579Z,37
2022-08-05T09:39:56.429Z,38
2022-08-05T09:44:51.299Z,38
2022-08-05T09:50:03.341Z,37
2022-08-05T09:54:47.381Z,38
2022-08-05T09:59:17.901Z,38
2022-08-05T10:04:13.574Z,38
2022-08-05T10:09:29.233Z,39
2022-08-05T10:14:12.714Z,38
2022-08-05T10:19:12.506Z,39
2022-08-05T10:24:11.583Z,39
2022-08-05T10:30:07.365Z,40
2022-08-05T10:34:17.555Z,40
2022-08-05T10:39:58.610Z,40
2022-08-05T10:44:17.099Z,40
2022-08-05T10:49:17.156Z,40
2022-08-05T10:54:31.108Z,39
2022-08-05T10:58:53.934Z,38
2022-08-05T11:03:51.906Z,39
2022-08-05T11:08:51.731Z,40
2022-08-05T11:13:58.676Z,40
2022-08-05T11:18:52.387Z,41
2022-08-05T11:24:30.520Z,40
2022-08-05T11:28:49.295Z,39
2022-08-05T11:33:48.681Z,39
2022-08-05T11:38:52.461Z,38
2022-08-05T11:44:08.422Z,38
2022-08-05T11:48:46.007Z,38
2022-08-05T11:53:45.342Z,39
2022-08-05T11:58:53.678Z,39
2022-08-05T12:00:12.938Z,39
2022-08-05T12:05:18.714Z,38
2022-08-05T12:10:12.861Z,39
2022-08-05T12:15:17.593Z,37
2022-08-05T12:20:30.755Z,38
2022-08-05T12:25:01.218Z,38
2022-08-05T12:30:19.132Z,39
2022-08-05T12:35:04.583Z,39
2022-08-05T12:40:11.035Z,38
2022-08-05T12:44:58.837Z,38
2022-08-05T12:50:06.083Z,38
2022-08-05T12:54:56.955Z,39
2022-08-05T12:59:47.062Z,40
2022-08-05T13:04:21.674Z,40
2022-08-05T13:09:28.841Z,41
2022-08-05T13:14:15.457Z,42
2022-08-05T13:19:16.685Z,44
2022-08-05T13:24:36.659Z,45
2022-08-05T13:29:37.483Z,46
2022-08-05T13:34:25.763Z,46
2022-08-05T13:40:20.235Z,44
2022-08-05T13:44:10.699Z,45
2022-08-05T13:49:12.533Z,45
2022-08-05T13:54:16.478Z,47
2022-08-05T13:58:55.795Z,48
2022-08-05T14:03:56.575Z,49
2022-08-05T14:08:55.032Z,49
2022-08-05T14:13:56.864Z,49
2022-08-05T14:18:53.011Z,49
2022-08-05T14:23:52.037Z,49
2022-08-05T14:28:53.215Z,49
2022-08-05T14:34:01.261Z,49
2022-08-05T14:38:47.840Z,48
2022-08-05T14:44:05.704Z,48
2022-08-05T14:48:50.616Z,49
2022-08-05T14:54:33.640Z,49
2022-08-05T14:58:53.523Z,50
2022-08-05T15:00:16.130Z,50
2022-08-05T15:05:14.410Z,50
2022-08-05T15:10:15.262Z,49
2022-08-05T15:15:15.899Z,49
2022-08-05T15:20:19.568Z,49
2022-08-05T15:25:14.886Z,48
2022-08-05T15:30:16.465Z,48
2022-08-05T15:35:13.339Z,48
2022-08-05T15:41:20.239Z,49
2022-08-05T15:45:01.130Z,50
2022-08-05T15:50:00.593Z,51
2022-08-05T15:54:59.641Z,51
2022-08-05T15:59:22.828Z,51
2022-08-05T16:04:20.356Z,50
2022-08-05T16:09:22.770Z,51
2022-08-05T16:14:19.249Z,51
2022-08-05T16:20:11.323Z,52
2022-08-05T16:24:51.101Z,53
2022-08-05T16:29:15.183Z,56
2022-08-05T16:34:15.158Z,59
2022-08-05T16:39:13.885Z,60
2022-08-05T16:44:13.351Z,61
2022-08-05T16:49:14.748Z,62
2022-08-05T16:54:20.581Z,63
2022-08-05T16:59:09.091Z,64
2022-08-05T17:03:59.942Z,63
2022-08-05T17:08:59.519Z,61
2022-08-05T17:14:06.621Z,60
2022-08-05T17:18:57.542Z,59
2022-08-05T17:24:18.556Z,58
2022-08-05T17:28:56.706Z,57
2022-08-05T17:33:58.215Z,56
2022-08-05T17:38:56.370Z,56
2022-08-05T17:43:54.971Z,56
2022-08-05T17:48:52.929Z,57
2022-08-05T17:53:55.443Z,58
2022-08-05T17:58:51.839Z,59
2022-08-05T18:00:14.783Z,59
2022-08-05T18:05:17.690Z,60
2022-08-05T18:10:21.540Z,60
2022-08-05T18:15:12.398Z,61
2022-08-05T18:20:16.045Z,63
2022-08-05T18:25:17.589Z,64
2022-08-05T18:30:15.621Z,64
2022-08-05T18:35:15.423Z,65
2022-08-05T18:41:58.697Z,66
2022-08-05T18:45:16.345Z,67
2022-08-05T18:50:12.617Z,67
2022-08-05T18:55:13.370Z,67
2022-08-05T19:00:04.196Z,67
2022-08-05T19:04:33.399Z,68
2022-08-05T19:09:40.798Z,68
2022-08-05T19:15:00.185Z,68
2022-08-05T19:19:31.549Z,68
2022-08-05T19:24:35.610Z,69
2022-08-05T19:29:37.049Z,69
2022-08-05T19:34:31.192Z,69
2022-08-05T19:39:29.024Z,69
2022-08-05T19:44:29.981Z,69
2022-08-05T19:49:25.336Z,69
2022-08-05T19:54:32.077Z,69
2022-08-05T20:00:01.109Z,68
2022-08-05T20:04:12.043Z,68
2022-08-05T20:09:14.502Z,68
2022-08-05T20:14:18.166Z,67
2022-08-05T20:19:02.111Z,67
2022-08-05T20:24:01.564Z,67
2022-08-05T20:29:01.434Z,66
2022-08-05T20:34:00.072Z,66
2022-08-05T20:38:59.530Z,66
2022-08-05T20:44:18.048Z,65
2022-08-05T20:48:59.088Z,65
2022-08-05T20:54:01.944Z,63
2022-08-05T20:58:45.067Z,63
2022-08-05T21:03:48.841Z,62
2022-08-05T21:08:44.646Z,62
2022-08-05T21:13:57.228Z,62
2022-08-05T21:18:45.740Z,62
2022-08-05T21:23:43.318Z,62
2022-08-05T21:28:50.988Z,63
2022-08-05T21:33:41.448Z,63
2022-08-05T21:38:41.494Z,63
2022-08-05T21:43:42.686Z,63
2022-08-05T21:48:40.361Z,63
2022-08-05T21:53:38.160Z,63
2022-08-05T21:58:42.621Z,64
2022-08-05T22:00:07.169Z,64
2022-08-05T22:04:57.870Z,64
2022-08-05T22:09:57.681Z,64
2022-08-05T22:14:56.810Z,64
2022-08-05T22:20:13.447Z,64
2022-08-05T22:24:56.609Z,64
2022-08-05T22:29:54.878Z,64
2022-08-05T22:34:51.735Z,64
2022-08-05T22:39:55.593Z,62
2022-08-05T22:44:57.770Z,62
2022-08-05T22:50:26.649Z,62
2022-08-05T22:54:49.642Z,61
2022-08-05T22:59:50.463Z,60
2022-08-05T23:04:10.794Z,59
2022-08-05T23:09:53.165Z,58
2022-08-05T23:14:11.755Z,57
2022-08-05T23:19:26.641Z,56
2022-08-05T23:24:15.852Z,55
2022-08-05T23:29:16.421Z,55
2022-08-05T23:34:24.981Z,55
2022-08-05T23:39:32.365Z,55
2022-08-05T23:44:12.095Z,55
2022-08-05T23:49:22.450Z,55
2022-08-05T23:54:12.088Z,55
2022-08-05T23:58:52.385Z,55
